Time;durP1;ratioP1;P1;durP2;ratioP2;P2;SDS_P1;SDS_P2;PMS_P1;PMS_P2;Temp;Humidity;BMP_temperature;BMP_pressure;BME280_temperature;BME280_humidity;BME280_pressure;Samples;Min_cycle;Max_cycle;Signal;HPM_P1;HPM_P2
2021/12/21 00:00:47;;;;;;;6.78;6.18;;;3.10;99.90;;;;;;5018859;28;20230;-80
2021/12/21 00:03:14;;;;;;;7.85;7.05;;;3.10;99.90;;;;;;5015890;28;20239;-78
2021/12/21 00:05:42;;;;;;;7.40;6.70;;;3.00;99.90;;;;;;5017647;28;20282;-80
2021/12/21 00:08:12;;;;;;;7.32;6.63;;;3.00;99.90;;;;;;5020840;28;20219;-82
2021/12/21 00:10:43;;;;;;;6.55;5.95;;;3.00;99.90;;;;;;5036980;22;20777;-86
2021/12/21 00:13:23;;;;;;;6.72;6.13;;;2.90;99.90;;;;;;5023670;28;20222;-81
2021/12/21 00:15:57;;;;;;;6.18;5.57;;;2.90;99.90;;;;;;5022401;28;20224;-81
2021/12/21 00:18:32;;;;;;;7.35;6.68;;;2.80;99.90;;;;;;5016984;28;20314;-79
2021/12/21 00:21:06;;;;;;;7.05;6.35;;;2.70;99.90;;;;;;5011934;28;20608;-74
2021/12/21 00:23:35;;;;;;;5.95;5.45;;;2.70;99.90;;;;;;5014104;28;20286;-82
2021/12/21 00:26:06;;;;;;;7.03;6.40;;;2.70;99.90;;;;;;5014125;28;20281;-82
2021/12/21 00:28:39;;;;;;;6.32;5.72;;;2.70;99.90;;;;;;5005205;28;20221;-82
2021/12/21 00:31:07;;;;;;;6.05;5.32;;;2.70;99.90;;;;;;5010989;28;20302;-76
2021/12/21 00:33:34;;;;;;;7.15;6.47;;;2.70;99.90;;;;;;5011544;28;20239;-73
2021/12/21 00:36:02;;;;;;;7.20;6.60;;;2.70;99.90;;;;;;5010892;28;20273;-76
2021/12/21 00:38:29;;;;;;;6.95;6.35;;;2.70;99.90;;;;;;4999539;28;20228;-76
2021/12/21 00:40:56;;;;;;;7.43;6.75;;;2.70;99.90;;;;;;5006608;28;20227;-76
2021/12/21 00:43:23;;;;;;;7.00;6.38;;;2.70;99.90;;;;;;4992828;28;20231;-76
2021/12/21 00:45:50;;;;;;;7.22;6.53;;;2.60;99.90;;;;;;5004747;28;20219;-78
2021/12/21 00:48:18;;;;;;;7.95;7.18;;;2.60;99.90;;;;;;4996065;28;20788;-76
2021/12/21 00:50:46;;;;;;;7.53;6.82;;;2.60;99.90;;;;;;4997534;28;20224;-74
2021/12/21 00:53:13;;;;;;;7.28;6.68;;;2.50;99.90;;;;;;5001329;28;20239;-80
2021/12/21 00:55:40;;;;;;;6.90;6.20;;;2.50;99.90;;;;;;5010608;28;20429;-76
2021/12/21 00:58:07;;;;;;;7.05;6.45;;;2.50;99.90;;;;;;4994603;28;20287;-79
2021/12/21 01:00:34;;;;;;;7.15;6.45;;;2.50;99.90;;;;;;4998943;28;20236;-76
2021/12/21 01:03:07;;;;;;;7.00;6.40;;;2.50;99.90;;;;;;4999110;28;20634;-80
2021/12/21 01:05:43;;;;;;;7.38;6.78;;;2.50;99.90;;;;;;4999320;28;20512;-79
2021/12/21 01:08:15;;;;;;;7.30;6.18;;;2.50;99.90;;;;;;5007856;28;20215;-79
2021/12/21 01:11:03;;;;;;;6.90;6.22;;;2.40;99.90;;;;;;5000702;28;20223;-82
2021/12/21 01:13:41;;;;;;;7.03;6.35;;;2.40;99.90;;;;;;4996605;28;20223;-79
2021/12/21 01:16:19;;;;;;;7.10;6.47;;;2.40;99.90;;;;;;4993872;28;20230;-86
2021/12/21 01:19:02;;;;;;;7.18;6.57;;;2.40;99.90;;;;;;5002018;28;20602;-80
2021/12/21 01:21:35;;;;;;;7.40;6.68;;;2.40;99.90;;;;;;4997046;28;20220;-79
2021/12/21 01:24:24;;;;;;;7.85;7.05;;;2.50;99.90;;;;;;5000699;28;20215;-75
2021/12/21 01:27:05;;;;;;;6.38;5.78;;;2.50;99.90;;;;;;5008708;28;20273;-76
2021/12/21 01:29:38;;;;;;;6.78;6.07;;;2.50;99.90;;;;;;4993791;28;20236;-76
2021/12/21 01:32:13;;;;;;;7.05;6.45;;;2.50;99.90;;;;;;4998025;28;20251;-76
2021/12/21 01:34:50;;;;;;;6.80;6.25;;;2.50;99.90;;;;;;5005894;28;20621;-82
2021/12/21 01:37:24;;;;;;;6.70;6.05;;;2.40;99.90;;;;;;4995499;28;20477;-75
2021/12/21 01:40:10;;;;;;;6.65;6.15;;;2.40;99.90;;;;;;4994261;28;20710;-83
2021/12/21 01:42:54;;;;;;;7.07;6.47;;;2.40;99.90;;;;;;5004182;28;20227;-81
2021/12/21 01:50:52;;;;;;;6.93;6.22;;;2.30;99.90;;;;;;4996512;28;20713;-74
2021/12/21 01:53:20;;;;;;;7.63;6.93;;;2.20;99.90;;;;;;5000951;28;20226;-75
2021/12/21 01:55:48;;;;;;;6.80;6.20;;;2.20;99.90;;;;;;5006008;28;20229;-80
2021/12/21 01:58:15;;;;;;;6.15;5.35;;;2.20;99.90;;;;;;4998226;28;20229;-77
2021/12/21 02:00:43;;;;;;;7.00;6.40;;;2.20;99.90;;;;;;4974705;28;21749;-77
2021/12/21 02:03:10;;;;;;;7.18;6.53;;;2.20;99.90;;;;;;4989260;28;20234;-75
2021/12/21 02:05:37;;;;;;;6.03;5.53;;;2.20;99.90;;;;;;5002665;28;20601;-79
2021/12/21 02:08:06;;;;;;;6.82;6.13;;;2.20;99.90;;;;;;5005347;28;20267;-74
2021/12/21 02:10:34;;;;;;;6.38;5.88;;;2.20;99.90;;;;;;5006309;28;20224;-76
2021/12/21 02:13:02;;;;;;;6.80;6.13;;;2.10;99.90;;;;;;5002733;28;20667;-78
2021/12/21 02:15:29;;;;;;;7.25;6.63;;;2.10;99.90;;;;;;4971044;28;20228;-74
2021/12/21 02:20:57;;;;;;;7.28;6.57;;;2.00;99.90;;;;;;4988796;28;20713;-79
2021/12/21 02:23:30;;;;;;;7.00;6.40;;;2.00;99.90;;;;;;5001071;28;20232;-78
2021/12/21 02:26:20;;;;;;;7.15;6.55;;;2.00;99.90;;;;;;5002592;28;20269;-74
2021/12/21 02:31:28;;;;;;;6.82;6.25;;;1.90;99.90;;;;;;4982012;28;20600;-76
2021/12/21 02:33:56;;;;;;;7.32;6.63;;;1.90;99.90;;;;;;5015346;28;20215;-73
2021/12/21 02:36:25;;;;;;;5.97;5.47;;;1.90;99.90;;;;;;5011531;28;20641;-77
2021/12/21 02:38:52;;;;;;;6.60;5.97;;;1.90;99.90;;;;;;5007538;28;20220;-73
2021/12/21 02:41:19;;;;;;;6.43;5.93;;;1.90;99.90;;;;;;5011381;28;20220;-74
2021/12/21 02:43:46;;;;;;;6.82;6.25;;;1.90;99.90;;;;;;5006577;28;20299;-75
2021/12/21 02:46:13;;;;;;;7.05;6.45;;;1.90;99.90;;;;;;5000371;28;20760;-74
2021/12/21 02:48:40;;;;;;;6.25;5.75;;;1.90;99.90;;;;;;5008285;28;20223;-76
2021/12/21 02:51:07;;;;;;;6.22;5.72;;;1.90;99.90;;;;;;5013400;28;20270;-76
2021/12/21 02:53:36;;;;;;;5.75;5.25;;;1.90;99.90;;;;;;5000525;28;20587;-78
2021/12/21 02:56:04;;;;;;;6.32;5.82;;;1.90;99.90;;;;;;5000198;28;20221;-75
2021/12/21 02:58:31;;;;;;;6.10;5.60;;;1.90;99.90;;;;;;5000005;28;20229;-77
2021/12/21 03:00:58;;;;;;;6.03;5.53;;;1.90;99.90;;;;;;5006016;28;20224;-75
2021/12/21 03:03:26;;;;;;;6.50;5.85;;;1.90;99.90;;;;;;4999952;28;20307;-76
2021/12/21 03:05:56;;;;;;;6.50;5.93;;;1.90;99.90;;;;;;4995693;28;20231;-79
2021/12/21 03:08:35;;;;;;;6.18;5.78;;;1.90;99.90;;;;;;5008163;28;20225;-78
2021/12/21 03:11:10;;;;;;;5.47;5.07;;;1.90;99.90;;;;;;5018716;28;20283;-74
2021/12/21 03:14:03;;;;;;;7.15;6.50;;;1.90;99.90;;;;;;5005754;28;20224;-75
2021/12/21 03:16:31;;;;;;;5.53;5.05;;;1.80;99.90;;;;;;5012900;28;20306;-75
2021/12/21 03:18:59;;;;;;;6.30;5.70;;;1.80;99.90;;;;;;5005269;28;20529;-74
2021/12/21 03:21:26;;;;;;;6.40;5.82;;;1.70;99.90;;;;;;5016100;28;20227;-74
2021/12/21 03:23:54;;;;;;;6.07;5.47;;;1.70;99.90;;;;;;5008135;28;20223;-74
2021/12/21 03:26:22;;;;;;;6.93;6.38;;;1.60;99.90;;;;;;5008093;28;20290;-77
2021/12/21 03:28:50;;;;;;;6.28;5.78;;;1.60;99.90;;;;;;5009350;28;20227;-82
2021/12/21 03:31:17;;;;;;;5.93;5.43;;;1.60;99.90;;;;;;5000485;28;21603;-74
2021/12/21 03:33:44;;;;;;;6.40;5.80;;;1.60;99.90;;;;;;5011373;28;20220;-73
2021/12/21 03:36:11;;;;;;;6.57;6.07;;;1.60;99.90;;;;;;5001088;28;20221;-74
2021/12/21 03:38:40;;;;;;;6.15;5.50;;;1.60;99.90;;;;;;5001315;28;20228;-77
2021/12/21 03:41:12;;;;;;;6.07;5.53;;;1.60;99.90;;;;;;4980098;28;20228;-77
2021/12/21 03:43:40;;;;;;;5.72;5.28;;;1.60;99.90;;;;;;5014751;28;20311;-74
2021/12/21 03:46:10;;;;;;;6.18;5.68;;;1.60;99.90;;;;;;5016704;28;20242;-78
2021/12/21 03:48:40;;;;;;;6.07;5.57;;;1.60;99.90;;;;;;5015022;28;20227;-80
2021/12/21 03:51:07;;;;;;;5.60;5.18;;;1.60;99.90;;;;;;5003467;28;20224;-77
2021/12/21 03:53:35;;;;;;;6.95;5.88;;;1.60;99.90;;;;;;5014604;28;20286;-76
2021/12/21 03:56:23;;;;;;;5.13;4.72;;;1.60;99.90;;;;;;5022084;28;20227;-74
2021/12/21 03:58:52;;;;;;;5.70;5.30;;;1.60;99.90;;;;;;5000915;28;20274;-74
2021/12/21 04:01:19;;;;;;;6.05;5.50;;;1.60;99.90;;;;;;5009065;28;20655;-74
2021/12/21 04:03:46;;;;;;;5.68;5.18;;;1.50;99.90;;;;;;5013965;28;20232;-74
2021/12/21 04:06:13;;;;;;;5.97;5.45;;;1.50;99.90;;;;;;5013966;28;20247;-75
2021/12/21 04:08:41;;;;;;;5.85;5.43;;;1.40;99.90;;;;;;5007172;28;20223;-74
2021/12/21 04:11:08;;;;;;;6.03;5.53;;;1.40;99.90;;;;;;5007786;28;20227;-75
2021/12/21 04:13:35;;;;;;;6.45;5.95;;;1.30;99.90;;;;;;5014359;28;20229;-75
2021/12/21 04:16:05;;;;;;;6.45;5.93;;;1.30;99.90;;;;;;5002508;28;20219;-79
2021/12/21 04:18:35;;;;;;;5.85;5.35;;;1.30;99.90;;;;;;5004686;28;20224;-76
2021/12/21 04:21:03;;;;;;;5.60;5.20;;;1.20;99.90;;;;;;5013069;28;20286;-77
2021/12/21 04:23:30;;;;;;;6.88;6.20;;;1.20;99.90;;;;;;5014105;28;20302;-75
2021/12/21 04:25:58;;;;;;;6.65;6.05;;;1.20;99.90;;;;;;5008205;28;20224;-77
2021/12/21 04:28:25;;;;;;;5.45;5.05;;;1.30;99.90;;;;;;5010252;28;20652;-76
2021/12/21 04:30:52;;;;;;;5.93;5.43;;;1.30;99.90;;;;;;5012858;28;20263;-77
2021/12/21 04:33:20;;;;;;;6.07;5.63;;;1.30;99.90;;;;;;5007421;28;20724;-75
2021/12/21 04:35:48;;;;;;;5.95;5.45;;;1.30;99.90;;;;;;5009350;28;20228;-78
2021/12/21 04:38:21;;;;;;;5.70;5.30;;;1.30;99.90;;;;;;5005763;28;20231;-79
2021/12/21 04:40:56;;;;;;;5.65;5.25;;;1.30;99.90;;;;;;5010341;28;20230;-75
2021/12/21 04:43:24;;;;;;;5.82;5.32;;;1.30;99.90;;;;;;5010588;28;20243;-82
2021/12/21 04:45:52;;;;;;;5.25;4.85;;;1.30;99.90;;;;;;5012241;28;20234;-75
2021/12/21 04:48:21;;;;;;;6.35;5.85;;;1.30;99.90;;;;;;5004222;28;20223;-74
2021/12/21 04:50:49;;;;;;;5.50;5.00;;;1.30;99.90;;;;;;4997250;28;20275;-82
2021/12/21 04:53:16;;;;;;;6.47;5.88;;;1.20;99.90;;;;;;5015099;28;20239;-74
2021/12/21 04:55:43;;;;;;;4.90;4.45;;;1.30;99.90;;;;;;5005614;28;20638;-73
2021/12/21 04:58:11;;;;;;;6.28;5.78;;;1.30;99.90;;;;;;5005720;28;20374;-76
2021/12/21 05:00:39;;;;;;;5.43;5.03;;;1.30;99.90;;;;;;4980178;28;20228;-76
2021/12/21 05:03:07;;;;;;;5.32;4.90;;;1.30;99.90;;;;;;5004332;28;20890;-75
2021/12/21 05:05:36;;;;;;;5.70;5.20;;;1.30;99.90;;;;;;5011324;28;20220;-79
2021/12/21 05:08:08;;;;;;;5.90;5.43;;;1.20;99.90;;;;;;5008609;28;20218;-75
2021/12/21 05:10:44;;;;;;;5.55;5.10;;;1.20;99.90;;;;;;5001769;28;20267;-77
2021/12/21 05:13:11;;;;;;;5.78;5.28;;;1.20;99.90;;;;;;5000395;28;20227;-79
2021/12/21 05:15:38;;;;;;;5.43;5.03;;;1.20;99.90;;;;;;4963133;28;20225;-76
2021/12/21 05:18:05;;;;;;;6.22;5.72;;;1.20;99.90;;;;;;5000591;28;20282;-75
2021/12/21 05:20:32;;;;;;;5.63;5.22;;;1.20;99.90;;;;;;4996743;28;20275;-80
2021/12/21 05:23:00;;;;;;;5.22;4.82;;;1.20;99.90;;;;;;5002577;28;20222;-74
2021/12/21 05:25:27;;;;;;;6.68;6.13;;;1.20;99.90;;;;;;5011462;28;20232;-74
2021/12/21 05:27:55;;;;;;;7.15;6.55;;;1.20;99.90;;;;;;5009360;28;20223;-77
2021/12/21 05:30:23;;;;;;;6.75;6.07;;;1.20;99.90;;;;;;4999469;28;21777;-73
2021/12/21 05:32:50;;;;;;;6.13;5.63;;;1.10;99.90;;;;;;4999772;28;20247;-75
2021/12/21 05:35:18;;;;;;;7.10;6.50;;;1.10;99.90;;;;;;5001949;28;20232;-75
2021/12/21 05:37:47;;;;;;;6.03;5.53;;;1.10;99.90;;;;;;5004498;28;20591;-75
2021/12/21 05:40:17;;;;;;;6.72;6.22;;;1.10;99.90;;;;;;5002949;28;20231;-73
2021/12/21 05:42:46;;;;;;;6.45;5.95;;;1.10;99.90;;;;;;5012924;28;20314;-76
2021/12/21 05:45:18;;;;;;;5.22;4.82;;;1.00;99.90;;;;;;4998488;28;20233;-73
2021/12/21 05:47:46;;;;;;;7.50;6.90;;;1.00;99.90;;;;;;5012755;28;20223;-73
2021/12/21 05:50:17;;;;;;;6.30;5.80;;;1.00;99.90;;;;;;5004842;28;20234;-78
2021/12/21 05:52:45;;;;;;;6.93;6.30;;;1.00;99.90;;;;;;5025593;28;20315;-76
2021/12/21 05:55:13;;;;;;;6.93;6.10;;;0.90;99.90;;;;;;5013249;28;20232;-74
2021/12/21 05:57:42;;;;;;;6.93;5.85;;;0.90;99.90;;;;;;5009533;28;20225;-75
2021/12/21 06:00:11;;;;;;;6.53;5.95;;;0.90;99.90;;;;;;5011987;28;20224;-77
2021/12/21 06:02:39;;;;;;;6.57;5.97;;;0.90;99.90;;;;;;5000201;28;20224;-81
2021/12/21 06:05:06;;;;;;;6.88;6.28;;;0.90;99.90;;;;;;5009341;28;20574;-74
2021/12/21 06:07:34;;;;;;;6.57;6.00;;;0.90;99.90;;;;;;5004177;28;20641;-74
2021/12/21 06:10:08;;;;;;;6.90;6.30;;;1.00;99.90;;;;;;5003976;28;20240;-73
2021/12/21 06:12:54;;;;;;;6.10;5.60;;;1.00;99.90;;;;;;5013796;28;20246;-79
2021/12/21 06:15:31;;;;;;;5.38;4.97;;;1.10;99.90;;;;;;5005642;28;20307;-73
2021/12/21 06:26:18;;;;;;;5.78;5.30;;;1.10;99.90;;;;;;5007990;28;20228;-74
2021/12/21 06:28:47;;;;;;;6.10;5.60;;;1.20;99.90;;;;;;4997606;28;20240;-73
2021/12/21 06:31:16;;;;;;;5.95;5.55;;;1.20;99.90;;;;;;5015873;28;20227;-72
2021/12/21 06:33:44;;;;;;;5.25;4.85;;;1.20;99.90;;;;;;5018599;28;20237;-77
2021/12/21 06:36:12;;;;;;;5.22;4.82;;;1.20;99.90;;;;;;5008562;28;20230;-75
2021/12/21 06:41:07;;;;;;;6.18;5.68;;;1.10;99.90;;;;;;4908817;28;20213;-78
2021/12/21 06:43:34;;;;;;;6.20;5.70;;;1.10;99.90;;;;;;4874428;28;20234;-79
2021/12/21 06:46:09;;;;;;;5.55;5.05;;;1.00;99.90;;;;;;4905098;28;20235;-79
2021/12/21 06:51:29;;;;;;;6.43;5.78;;;0.90;99.90;;;;;;4929711;28;20267;-78
2021/12/21 06:53:58;;;;;;;5.18;4.78;;;0.80;99.90;;;;;;5007259;28;20282;-78
2021/12/21 06:56:27;;;;;;;6.30;5.45;;;0.80;99.90;;;;;;5007307;28;20336;-79
2021/12/21 06:58:55;;;;;;;6.70;6.20;;;0.80;99.90;;;;;;5009684;28;20717;-80
2021/12/21 07:01:22;;;;;;;5.93;5.50;;;0.80;99.90;;;;;;5010872;28;20687;-79
2021/12/21 07:03:51;;;;;;;6.45;5.85;;;0.70;99.90;;;;;;5013813;28;20234;-80
2021/12/21 07:06:19;;;;;;;5.75;5.32;;;0.70;99.90;;;;;;5002216;28;20224;-78
2021/12/21 07:08:54;;;;;;;6.07;5.57;;;0.70;99.90;;;;;;5006508;28;20243;-79
2021/12/21 07:11:27;;;;;;;6.63;6.03;;;0.80;99.90;;;;;;5007972;28;20235;-79
2021/12/21 07:19:25;;;;;;;6.20;5.63;;;0.90;99.90;;;;;;5011582;28;20230;-79
2021/12/21 07:21:52;;;;;;;6.57;6.07;;;0.90;99.90;;;;;;5006690;28;20712;-79
2021/12/21 07:24:19;;;;;;;6.15;5.75;;;0.90;99.90;;;;;;5009028;28;20255;-79
2021/12/21 07:26:46;;;;;;;6.25;5.75;;;0.90;99.90;;;;;;5009383;28;20569;-79
2021/12/21 07:29:14;;;;;;;6.15;5.65;;;0.90;99.90;;;;;;5007274;28;20707;-79
2021/12/21 07:31:41;;;;;;;5.22;4.82;;;1.00;99.90;;;;;;5008245;28;20761;-80
2021/12/21 07:34:08;;;;;;;5.93;5.38;;;1.10;99.90;;;;;;5013999;28;20269;-78
2021/12/21 07:36:36;;;;;;;5.90;5.50;;;1.10;99.90;;;;;;5008243;28;20228;-79
2021/12/21 07:39:06;;;;;;;5.80;5.38;;;1.20;99.90;;;;;;5015019;28;20235;-80
2021/12/21 07:41:34;;;;;;;6.20;5.70;;;1.20;99.90;;;;;;5004855;28;20219;-79
2021/12/21 07:44:01;;;;;;;6.30;5.82;;;1.20;99.90;;;;;;5010049;28;20219;-79
2021/12/21 07:46:28;;;;;;;6.13;5.55;;;1.20;99.90;;;;;;5007185;28;20238;-78
2021/12/21 07:48:55;;;;;;;5.93;5.43;;;1.20;99.90;;;;;;5005481;28;20232;-79
2021/12/21 07:51:23;;;;;;;5.80;5.40;;;1.30;99.90;;;;;;5009138;28;20286;-79
2021/12/21 07:53:52;;;;;;;5.93;5.43;;;1.30;99.90;;;;;;5008723;28;20216;-78
2021/12/21 07:56:19;;;;;;;6.75;6.25;;;1.40;99.90;;;;;;5002857;28;20216;-79
2021/12/21 07:58:48;;;;;;;7.53;6.45;;;1.40;99.90;;;;;;5004668;28;20232;-79
2021/12/21 08:01:16;;;;;;;6.05;5.57;;;1.50;99.90;;;;;;5005067;28;20224;-77
2021/12/21 08:03:43;;;;;;;7.28;6.68;;;1.50;99.90;;;;;;5002944;28;20251;-78
2021/12/21 08:06:12;;;;;;;7.03;6.43;;;1.50;99.90;;;;;;5005088;28;20220;-79
2021/12/21 08:08:41;;;;;;;7.38;6.75;;;1.60;99.90;;;;;;4999094;28;20220;-79
2021/12/21 08:11:14;;;;;;;7.25;6.65;;;1.60;99.90;;;;;;5002871;28;20641;-79
2021/12/21 08:13:43;;;;;;;7.68;6.90;;;1.60;99.90;;;;;;4999360;28;20243;-79
2021/12/21 08:16:11;;;;;;;7.47;6.78;;;1.60;99.90;;;;;;4997259;28;20652;-80
2021/12/21 08:18:39;;;;;;;7.80;7.00;;;1.60;99.90;;;;;;5003828;28;20224;-78
2021/12/21 08:21:06;;;;;;;6.78;6.18;;;1.60;99.90;;;;;;5000664;28;20250;-80
2021/12/21 08:23:33;;;;;;;7.53;6.93;;;1.50;99.90;;;;;;4998908;28;20219;-80
2021/12/21 08:26:00;;;;;;;6.80;6.20;;;1.40;99.90;;;;;;5004085;28;20235;-79
2021/12/21 08:28:29;;;;;;;6.57;6.07;;;1.50;99.90;;;;;;5004053;28;20231;-80
2021/12/21 08:30:56;;;;;;;6.88;6.25;;;1.60;99.90;;;;;;4995039;28;20256;-79
2021/12/21 08:33:23;;;;;;;7.93;7.13;;;1.60;99.90;;;;;;5006768;28;20220;-80
2021/12/21 08:35:50;;;;;;;7.47;6.70;;;1.60;99.90;;;;;;5003889;28;20227;-80
2021/12/21 08:38:19;;;;;;;6.75;6.05;;;1.70;99.90;;;;;;5002311;28;20228;-79
2021/12/21 08:40:49;;;;;;;5.80;5.28;;;1.80;99.90;;;;;;5001272;28;20255;-79
2021/12/21 08:43:19;;;;;;;7.07;6.55;;;1.80;99.90;;;;;;5010885;28;20256;-79
2021/12/21 08:45:51;;;;;;;6.43;5.90;;;1.80;99.90;;;;;;5006414;28;20228;-79
2021/12/21 08:48:20;;;;;;;6.22;5.72;;;1.80;99.90;;;;;;5004702;28;20228;-80
2021/12/21 08:50:50;;;;;;;6.80;6.20;;;1.80;99.90;;;;;;5010728;28;20259;-78
2021/12/21 08:53:17;;;;;;;6.18;5.68;;;1.80;99.90;;;;;;5007844;28;20227;-78
2021/12/21 08:55:45;;;;;;;6.88;6.28;;;1.90;99.90;;;;;;5008444;28;20721;-79
2021/12/21 08:58:13;;;;;;;6.32;5.80;;;1.90;99.90;;;;;;5001579;28;20480;-78
2021/12/21 09:00:41;;;;;;;7.05;6.45;;;2.00;99.90;;;;;;5006636;28;20239;-79
2021/12/21 09:03:11;;;;;;;7.32;6.72;;;2.10;99.90;;;;;;5003505;28;20251;-80
2021/12/21 09:05:39;;;;;;;7.82;7.13;;;2.20;99.90;;;;;;5003315;28;20224;-78
2021/12/21 09:08:07;;;;;;;7.78;7.07;;;2.20;99.90;;;;;;5004161;28;20235;-79
2021/12/21 09:10:35;;;;;;;7.18;6.57;;;2.30;99.90;;;;;;5004494;28;20235;-79
2021/12/21 09:13:02;;;;;;;7.60;7.00;;;2.30;99.90;;;;;;5007000;28;20250;-77
2021/12/21 09:15:31;;;;;;;7.85;7.20;;;2.40;99.90;;;;;;4993738;28;20301;-79
2021/12/21 09:17:58;;;;;;;7.32;6.70;;;2.40;99.90;;;;;;5006419;28;20274;-81
2021/12/21 09:20:29;;;;;;;7.57;6.95;;;2.40;99.90;;;;;;5008282;28;20243;-79
2021/12/21 09:22:57;;;;;;;7.85;7.20;;;2.50;99.90;;;;;;5008409;28;20250;-79
2021/12/21 09:25:25;;;;;;;7.43;6.72;;;2.50;99.90;;;;;;5010171;28;20295;-78
2021/12/21 09:27:53;;;;;;;8.63;6.25;;;2.50;99.90;;;;;;5009538;28;20344;-79
2021/12/21 09:30:22;;;;;;;7.70;7.00;;;2.50;99.90;;;;;;5008990;28;20255;-77
2021/12/21 09:32:51;;;;;;;6.63;6.03;;;2.50;99.90;;;;;;5011477;28;20649;-79
2021/12/21 09:35:18;;;;;;;7.38;6.68;;;2.50;99.90;;;;;;5010541;28;20216;-80
2021/12/21 09:37:47;;;;;;;6.55;5.95;;;2.50;99.90;;;;;;5003146;28;20228;-80
2021/12/21 09:40:18;;;;;;;7.20;6.50;;;2.50;99.90;;;;;;4998124;28;20233;-79
2021/12/21 09:42:46;;;;;;;7.57;6.88;;;2.50;99.90;;;;;;5003267;28;20926;-78
2021/12/21 09:45:13;;;;;;;8.57;7.78;;;2.40;99.90;;;;;;5004065;28;20228;-79
2021/12/21 09:47:40;;;;;;;8.27;7.47;;;2.40;99.90;;;;;;5003663;28;20315;-79
2021/12/21 09:50:10;;;;;;;7.60;6.90;;;2.30;99.90;;;;;;5002644;28;20274;-78
2021/12/21 09:52:37;;;;;;;7.65;7.05;;;2.20;99.90;;;;;;4999043;28;20644;-78
2021/12/21 09:55:09;;;;;;;6.80;6.07;;;2.20;99.90;;;;;;4999919;28;20235;-79
2021/12/21 09:57:36;;;;;;;7.07;6.47;;;2.20;99.90;;;;;;5004905;28;20228;-79
2021/12/21 10:00:07;;;;;;;7.30;6.70;;;2.30;99.90;;;;;;5005120;28;20231;-79
2021/12/21 10:02:35;;;;;;;6.60;6.10;;;2.40;99.90;;;;;;5006125;28;20236;-78
2021/12/21 10:05:06;;;;;;;6.85;6.25;;;2.40;99.90;;;;;;5007190;28;20483;-78
2021/12/21 10:07:34;;;;;;;6.55;6.03;;;2.50;99.90;;;;;;5002592;28;20789;-75
2021/12/21 10:10:13;;;;;;;6.88;6.28;;;2.50;99.90;;;;;;5004870;28;20287;-76
2021/12/21 10:12:42;;;;;;;7.45;6.78;;;2.50;99.90;;;;;;5003331;28;20228;-78
2021/12/21 10:15:11;;;;;;;7.80;6.55;;;2.50;99.90;;;;;;5003857;28;20224;-78
2021/12/21 10:17:47;;;;;;;7.40;6.78;;;2.50;99.90;;;;;;5002958;28;20286;-78
2021/12/21 10:20:14;;;;;;;7.63;6.93;;;2.50;99.90;;;;;;5003842;28;20224;-77
2021/12/21 10:22:50;;;;;;;7.28;6.70;;;2.50;99.90;;;;;;5005250;28;20217;-77
2021/12/21 10:25:19;;;;;;;8.30;7.55;;;2.60;99.90;;;;;;5001475;28;20295;-79
2021/12/21 10:27:46;;;;;;;8.23;7.32;;;2.60;99.90;;;;;;5007046;28;20601;-79
2021/12/21 10:30:14;;;;;;;7.28;6.68;;;2.60;99.90;;;;;;5002752;28;20232;-78
2021/12/21 10:32:51;;;;;;;7.38;6.68;;;2.60;99.90;;;;;;5001168;28;20220;-77
2021/12/21 10:35:19;;;;;;;8.75;7.95;;;2.60;99.90;;;;;;4989146;28;20224;-76
2021/12/21 10:37:51;;;;;;;11.27;8.50;;;2.60;99.90;;;;;;5003597;28;20223;-75
2021/12/21 10:40:23;;;;;;;9.70;7.97;;;2.60;99.90;;;;;;4979096;28;20220;-76
2021/12/21 10:42:54;;;;;;;10.00;8.32;;;2.60;99.90;;;;;;5000826;28;20299;-75
2021/12/21 10:45:27;;;;;;;11.20;8.50;;;2.60;99.90;;;;;;5002047;28;20710;-76
2021/12/21 10:47:54;;;;;;;9.38;8.27;;;2.50;99.90;;;;;;4995790;28;20216;-77
2021/12/21 10:50:22;;;;;;;10.00;7.97;;;2.60;99.90;;;;;;4997487;28;20235;-78
2021/12/21 10:52:52;;;;;;;8.68;7.45;;;2.60;99.90;;;;;;4997450;28;20224;-75
2021/12/21 10:55:28;;;;;;;9.55;8.63;;;2.50;99.90;;;;;;4998996;28;20738;-75
2021/12/21 10:58:15;;;;;;;10.30;7.82;;;2.40;99.90;;;;;;4999691;28;20220;-76
2021/12/21 11:00:45;;;;;;;8.70;7.85;;;2.30;99.90;;;;;;4991885;28;20631;-76
2021/12/21 11:03:16;;;;;;;8.52;7.75;;;2.30;99.90;;;;;;4995374;28;20252;-77
2021/12/21 11:05:44;;;;;;;8.35;7.60;;;2.20;99.90;;;;;;4995806;28;20271;-76
2021/12/21 11:08:16;;;;;;;8.27;7.47;;;2.30;99.90;;;;;;4999834;28;20212;-77
2021/12/21 11:10:51;;;;;;;8.13;7.32;;;2.40;99.90;;;;;;4994792;28;20247;-77
2021/12/21 11:13:20;;;;;;;8.15;7.35;;;2.40;99.90;;;;;;4995293;28;20228;-78
2021/12/21 11:15:52;;;;;;;8.50;7.68;;;2.30;99.90;;;;;;4999240;28;20224;-75
2021/12/21 11:18:21;;;;;;;8.35;7.57;;;2.40;99.90;;;;;;4997636;28;20750;-77
2021/12/21 11:20:51;;;;;;;10.70;7.75;;;2.40;99.90;;;;;;4975167;28;20233;-77
2021/12/21 11:23:20;;;;;;;8.93;7.00;;;2.50;99.90;;;;;;5007252;28;20220;-77
2021/12/21 11:25:53;;;;;;;7.63;6.93;;;2.50;99.90;;;;;;4996204;28;20646;-75
2021/12/21 11:28:23;;;;;;;8.50;7.68;;;2.50;99.90;;;;;;4995614;28;20212;-75
2021/12/21 11:30:50;;;;;;;8.48;7.68;;;2.60;99.90;;;;;;4995327;28;21666;-76
2021/12/21 11:33:18;;;;;;;8.38;7.43;;;2.60;99.90;;;;;;4991276;28;20231;-77
2021/12/21 11:38:31;;;;;;;8.45;7.65;;;2.70;99.90;;;;;;4998809;28;20222;-77
2021/12/21 11:41:01;;;;;;;7.55;6.88;;;2.80;99.90;;;;;;4997129;28;20609;-77
2021/12/21 11:43:36;;;;;;;9.52;7.60;;;2.70;99.90;;;;;;4996726;28;20220;-76
2021/12/21 11:46:06;;;;;;;7.63;7.00;;;2.80;99.90;;;;;;4996136;28;20215;-78
2021/12/21 11:48:52;;;;;;;7.95;7.22;;;2.80;99.90;;;;;;4998671;28;20298;-76
2021/12/21 11:51:25;;;;;;;7.10;6.40;;;2.80;99.90;;;;;;4993487;28;21074;-77
2021/12/21 11:53:54;;;;;;;8.10;7.30;;;2.90;99.90;;;;;;5000620;28;20216;-78
2021/12/21 11:56:26;;;;;;;7.85;7.10;;;2.90;99.90;;;;;;4991791;28;20263;-77
2021/12/21 11:58:55;;;;;;;8.07;6.97;;;2.90;99.90;;;;;;4997727;28;20227;-77
2021/12/21 12:01:25;;;;;;;8.15;7.35;;;3.00;99.90;;;;;;4994759;28;20565;-77
2021/12/21 12:03:59;;;;;;;7.53;6.82;;;3.00;99.90;;;;;;4996594;28;20216;-78
2021/12/21 12:06:27;;;;;;;8.45;7.00;;;3.00;99.90;;;;;;4995520;28;20306;-77
2021/12/21 12:09:00;;;;;;;7.63;6.82;;;3.00;99.90;;;;;;4993674;28;20235;-76
2021/12/21 12:11:35;;;;;;;9.18;7.60;;;3.00;99.90;;;;;;4994101;28;20228;-76
2021/12/21 12:14:08;;;;;;;7.88;7.18;;;3.00;99.90;;;;;;4996118;28;20454;-76
2021/12/21 12:16:44;;;;;;;8.25;7.20;;;3.00;99.90;;;;;;4994787;28;20239;-76
2021/12/21 12:19:13;;;;;;;7.88;7.07;;;3.00;99.90;;;;;;4993359;28;20227;-77
2021/12/21 12:21:53;;;;;;;8.43;6.95;;;3.10;99.90;;;;;;4995221;28;20579;-74
2021/12/21 12:24:22;;;;;;;8.93;8.02;;;3.00;99.90;;;;;;4991938;28;20599;-75
2021/12/21 12:27:00;;;;;;;11.27;7.60;;;3.00;99.90;;;;;;4993238;28;20227;-77
2021/12/21 12:29:28;;;;;;;9.48;7.47;;;3.10;99.90;;;;;;4995175;28;20270;-76
2021/12/21 12:32:01;;;;;;;7.80;7.07;;;3.10;99.90;;;;;;4994564;28;20220;-76
2021/12/21 12:34:32;;;;;;;6.85;6.15;;;3.10;99.90;;;;;;4993809;28;20566;-75
2021/12/21 12:36:59;;;;;;;8.75;7.20;;;3.20;99.90;;;;;;4991042;28;20620;-75
2021/12/21 12:39:30;;;;;;;8.60;7.80;;;3.20;99.90;;;;;;4951072;22;20580;-72
2021/12/21 12:42:05;;;;;;;7.57;6.82;;;3.20;99.90;;;;;;4953278;28;20224;-73
2021/12/21 12:44:33;;;;;;;7.32;6.72;;;3.20;99.90;;;;;;4993472;28;20224;-69
2021/12/21 12:47:04;;;;;;;9.00;6.55;;;3.30;99.90;;;;;;4992536;28;20239;-72
2021/12/21 12:49:33;;;;;;;8.15;7.35;;;3.30;99.90;;;;;;4992201;28;20287;-70
2021/12/21 12:52:11;;;;;;;8.38;7.57;;;3.30;99.90;;;;;;4982079;28;20227;-68
2021/12/21 12:54:51;;;;;;;7.97;7.15;;;3.30;99.90;;;;;;4984294;28;20237;-70
2021/12/21 12:57:30;;;;;;;7.30;6.60;;;3.30;99.90;;;;;;4983763;28;21022;-69
2021/12/21 13:00:08;;;;;;;7.43;6.72;;;3.30;99.90;;;;;;4958959;28;20216;-70
2021/12/21 13:02:35;;;;;;;8.15;7.35;;;3.40;99.90;;;;;;4978472;28;20232;-72
2021/12/21 13:05:07;;;;;;;8.38;7.57;;;3.40;99.90;;;;;;4985095;28;20230;-74
2021/12/21 13:07:34;;;;;;;9.48;8.57;;;3.40;99.90;;;;;;4986517;28;20216;-73
2021/12/21 13:10:04;;;;;;;8.98;7.60;;;3.50;99.90;;;;;;4983011;28;20243;-73
2021/12/21 13:12:33;;;;;;;8.88;7.97;;;3.70;99.90;;;;;;4982496;28;20231;-72
2021/12/21 13:15:00;;;;;;;11.75;8.13;;;3.80;99.90;;;;;;4981553;28;20231;-75
2021/12/21 13:17:27;;;;;;;8.20;7.38;;;3.80;99.90;;;;;;4982130;28;20216;-74
2021/12/21 13:19:55;;;;;;;9.38;7.30;;;3.90;99.90;;;;;;4981212;28;20375;-73
2021/12/21 13:22:23;;;;;;;8.52;7.80;;;4.10;99.90;;;;;;4984108;28;20251;-71
2021/12/21 13:24:51;;;;;;;8.00;7.20;;;4.40;99.90;;;;;;4978989;28;20290;-70
2021/12/21 13:27:20;;;;;;;8.23;7.45;;;4.70;99.90;;;;;;4986449;28;20235;-69
2021/12/21 13:29:50;;;;;;;8.15;7.35;;;4.90;99.90;;;;;;4985870;28;20232;-72
2021/12/21 13:32:19;;;;;;;7.93;7.13;;;5.10;99.90;;;;;;4987557;28;20761;-73
2021/12/21 13:34:52;;;;;;;10.57;7.95;;;5.30;99.90;;;;;;4989240;28;20316;-73
2021/12/21 13:37:19;;;;;;;8.80;7.13;;;5.40;99.90;;;;;;4955847;28;20224;-73
2021/12/21 13:39:49;;;;;;;10.68;7.75;;;5.50;99.90;;;;;;4980235;28;20228;-71
2021/12/21 13:42:19;;;;;;;8.20;7.40;;;5.40;99.90;;;;;;4982552;28;20225;-75
2021/12/21 13:44:49;;;;;;;8.50;6.72;;;5.30;99.90;;;;;;4979148;28;20334;-70